ADDS TAF Data INFO

IDs: Format: Raw Decoded Include METARs

Data at: 1602 UTC 06 Mar 2015

Region: TOP
KATL 061552Z 0616/0718 02006KT P6SM BKN035
  TEMPO 0616/0617 SCT035
  FM061700 03007KT P6SM SCT040
  FM062000 32006KT P6SM FEW040
  FM070000 32005KT P6SM SKC


KBOS 061120Z 0612/0718 33008KT P6SM FEW250
  FM062000 23006KT P6SM FEW250


KBWI 061458Z 0615/0718 36006KT P6SM SKC
  FM062300 00000KT P6SM FEW250
  FM071600 23006KT P6SM SCT250


KCLE 061456Z 0615/0718 20010KT P6SM SCT250
  FM061800 21012G20KT P6SM BKN035
  FM070000 21010KT P6SM BKN050 OVC120
  FM070900 21012KT P6SM OVC025


KCLT 061503Z 0615/0712 02008G16KT P6SM FEW250
  FM061600 03010KT P6SM FEW030
  FM061800 36005KT P6SM SKC
  FM062200 18004KT P6SM SKC


KCVG 061456Z 0615/0718 19007KT P6SM SCT250
  FM062300 21008KT P6SM SCT100
  FM070900 22009KT P6SM SCT018 SCT120
  FM071000 22009KT P6SM BKN018


KDCA 061458Z 0615/0712 36006KT P6SM SKC
  FM062300 00000KT P6SM FEW250


KDEN 061439Z 0615/0718 22008KT P6SM FEW120 SCT200
  FM062000 10007KT P6SM SCT200
  FM070200 18007KT P6SM SKC


KDFW 061502Z 0615/0718 19004KT P6SM SKC

KDTW 061510Z 0615/0718 20008KT P6SM BKN200
  FM061700 21012G18KT P6SM BKN150
  FM070100 20012KT P6SM SCT025 BKN040
  FM070600 23010KT P6SM OVC020


KEWR 061434Z 0615/0718 35008KT P6SM SKC
  FM061700 VRB04KT P6SM SKC
  FM062100 26005KT P6SM SCT150


KFLL 061439Z 0615/0712 14005KT P6SM OVC080
  FM061700 08010KT P6SM VCSH BKN040
  FM070100 01008KT P6SM BKN035


KIAD 061458Z 0615/0718 36006KT P6SM SKC
  FM062100 00000KT P6SM FEW250
  FM071600 22006KT P6SM SCT250


KIAH 061509Z 0615/0718 05012KT P6SM BKN250
  FM061900 04009KT P6SM SCT250
  FM070200 00000KT P6SM FEW250


KJFK 061434Z 0615/0718 35008KT P6SM SKC
  FM061800 VRB04KT P6SM SKC
  FM062200 24006KT P6SM FEW250
  FM070600 26010KT P6SM SCT150


KLAS 061436Z 0615/0712 21008KT P6SM SKC
  FM061700 04005KT P6SM SKC
  FM070300 21008KT P6SM SKC


KLAX 061440Z 0615/0718 06005KT P6SM SKC
  FM062100 27010KT P6SM SKC
  FM070500 VRB03KT P6SM SKC


KLGA 061434Z 0615/0712 35008KT P6SM SKC
  FM061800 VRB04KT P6SM SKC
  FM062200 26006KT P6SM FEW250


KMCO 061516Z 0615/0712 03011KT P6SM SCT008 OVC012
  FM062300 01017G24KT P6SM OVC008
  FM070500 36013KT P6SM OVC004


KMDW 061401Z 0614/0712 20014G21KT P6SM SCT150
  FM061800 22016G24KT P6SM SCT035 BKN080
  FM070100 23011KT P6SM FEW015 BKN100


KMEM 061501Z 0615/0712 08005KT P6SM SKC
  FM062200 27004KT P6SM SKC
  FM070300 21003KT P6SM SKC


KMIA 061439Z 0615/0712 09006KT P6SM FEW016 FEW070
  FM061600 11008KT P6SM SCT045
  FM062300 01006KT P6SM BKN035


KMSP 061512Z 0615/0718 22008KT P6SM SCT080
  FM061700 26008KT P6SM FEW020
  FM070100 22006KT P6SM BKN050 BKN090
  FM071200 29014KT P6SM BKN025


KORD 061401Z 0614/0718 20014G21KT P6SM SCT150
  FM061800 22016G24KT P6SM SCT035 BKN080
  FM070100 23011KT P6SM FEW015 BKN100
  FM071500 24012G19KT P6SM SCT080


KPDX 061451Z 0615/0712 VRB03KT P6SM SCT250

KPHL 061450Z 0615/0718 35007KT P6SM SKC
  FM061900 30004KT P6SM SCT050
  FM070200 26006KT P6SM SCT250


KPHX 061508Z 0615/0712 08011KT P6SM SKC
  FM061700 07012G22KT P6SM SKC
  FM062300 09005KT P6SM SKC


KPIT 061458Z 0615/0718 21003KT P6SM SKC
  FM062100 21006KT P6SM SCT150
  FM071300 21006KT P6SM BKN025


KSAN 061504Z 0615/0718 VRB03KT P6SM SKC
  FM062000 32012KT P6SM SKC
  FM070200 35004KT P6SM SKC


KSEA 061414Z 0614/0718 00000KT P6SM BKN200
  FM061800 33005KT P6SM BKN200
  FM070400 03003KT P6SM BKN200


KSFO 061456Z 0615/0718 VRB03KT P6SM SKC
  FM062200 28012KT P6SM SKC
  FM070400 28006KT P6SM SKC
  FM070800 27003KT P6SM SKC


KSLC 061505Z 0615/0718 15007KT P6SM FEW200
  FM061900 32007KT P6SM FEW200
  FM070400 15006KT P6SM SKC


KSTL 061458Z 0615/0718 17009KT P6SM SKC
  FM061600 19012G20KT P6SM SCT100
  FM070000 21009KT P6SM SCT120
  FM071500 24011KT P6SM SCT120


KTPA 061506Z 0615/0712 VRB03KT P6SM OVC008
  FM061700 01010KT P6SM OVC012
  FM071000 02012KT P6SM BKN025